Aviation Digital Data Service (ADDS)

Output produced by METARs form (1103 UTC 13 December 2017)
found at http://www.aviationweather.gov/adds/metars/
 
UMBB 131030Z 29004G07MPS 9999 BKN030 04/M02 Q1016 R29/CLRD// NOSIG
TAF UMBB 130805Z 1309/1318 25005G10MPS 6000 BKN015 
     TEMPO 1315/1318 2000 BR BKN005
       
UMGG 131030Z 21005MPS 5000 -SHSNRA BR OVC029CB 01/00 Q1015 R10/290050 NOSIG
TAF UMGG 130500Z 1306/1406 21006MPS 4000 BR BKN013 TX03/1306Z TNM01/1321Z 
     TEMPO 1306/1314 24006MPS 2000 SHRA BKN005 SCT015CB 
     TEMPO 1314/1406 VRB01MPS 1200 SHSNRA BKN004 SCT015CB
       
UMMG 131000Z 24004MPS CAVOK 01/M02 Q1013 R17/CLRD// NOSIG
TAF UMMG 130800Z 1309/1318 23006G11MPS 9999 BKN015 
     TEMPO 1309/1312 4000 -SHRASN BKN010CB
       
UMBB 131030Z 29004G07MPS 9999 BKN030 04/M02 Q1016 R29/CLRD// NOSIG
TAF UMBB 130805Z 1309/1318 25005G10MPS 6000 BKN015 
     TEMPO 1315/1318 2000 BR BKN005
       
UMGG 131030Z 21005MPS 5000 -SHSNRA BR OVC029CB 01/00 Q1015 R10/290050 NOSIG
TAF UMGG 130500Z 1306/1406 21006MPS 4000 BR BKN013 TX03/1306Z TNM01/1321Z 
     TEMPO 1306/1314 24006MPS 2000 SHRA BKN005 SCT015CB 
     TEMPO 1314/1406 VRB01MPS 1200 SHSNRA BKN004 SCT015CB
       
UMII 131000Z 24006G10MPS 9999 SCT026 SCT300 01/M02 Q1009 R23/190250 NOSIG
TAF UMII 130801Z 1309/1318 24005G10MPS 6000 BKN015 
     TEMPO 1309/1318 VRB12MPS 1300 SHSNRA BKN003 BKN010CB
       
UMKK 131030Z 21008MPS 9999 OVC016 02/M00 Q1011 R24/69//55 NOSIG RMK QFE757/1010
TAF UMKK 130800Z 1309/1409 22007G12MPS 9999 BKN011 
     TEMPO 1309/1313 19008G13MPS 3500 -SHRASN BKN015CB 
     BECMG 1313/1315 18007G13MPS 
     BECMG 1323/1401 16008G15MPS
       
UMMG 131000Z 24004MPS CAVOK 01/M02 Q1013 R17/CLRD// NOSIG
TAF UMMG 130800Z 1309/1318 23006G11MPS 9999 BKN015 
     TEMPO 1309/1312 4000 -SHRASN BKN010CB
       
UMMM 131030Z 26005MPS CAVOK 01/M01 Q1012 R30/920330 NOSIG RMK QFE740
TAF UMMM 130802Z 1309/1318 23005G10MPS 9999 BKN015 TX01/1309Z TNM03/1318Z 
     TEMPO 1309/1318 25008G13MPS 3000 -SHSNRA SCT007 BKN012CB
       
UMMS 131030Z 24004MPS CAVOK 01/M02 Q1012 R31/290055 NOSIG
TAF UMMS 130508Z 1306/1406 23006G11MPS 9999 BKN010 
     TEMPO 1306/1314 27009G14MPS 3000 -SNRA SCT005 
     BECMG 1314/1315 19005MPS 4000 BR BKN005 
     TEMPO 1315/1406 1200 SHRASN BCFG SCT003 SCT012CB
       
UMOO 131000Z 24005MPS CAVOK 02/M03 Q1011 R31/290058 NOSIG
TAF UMOO 130800Z 1309/1318 24007MPS 8000 BKN015 
     TEMPO 1309/1318 28006G11MPS 4000 -SHRASN BR BKN007 SCT012CB
       
UMMM 131030Z 26005MPS CAVOK 01/M01 Q1012 R30/920330 NOSIG RMK QFE740
TAF UMMM 130802Z 1309/1318 23005G10MPS 9999 BKN015 TX01/1309Z TNM03/1318Z 
     TEMPO 1309/1318 25008G13MPS 3000 -SHSNRA SCT007 BKN012CB
       
UMMS 131030Z 24004MPS CAVOK 01/M02 Q1012 R31/290055 NOSIG
TAF UMMS 130508Z 1306/1406 23006G11MPS 9999 BKN010 
     TEMPO 1306/1314 27009G14MPS 3000 -SNRA SCT005 
     BECMG 1314/1315 19005MPS 4000 BR BKN005 
     TEMPO 1315/1406 1200 SHRASN BCFG SCT003 SCT012CB
       
UMOO 131000Z 24005MPS CAVOK 02/M03 Q1011 R31/290058 NOSIG
TAF UMOO 130800Z 1309/1318 24007MPS 8000 BKN015 
     TEMPO 1309/1318 28006G11MPS 4000 -SHRASN BR BKN007 SCT012CB